sensor_id;sensor_type;location;lat;lon;timestamp;temperature;humidity
12111;DHT22;6119;52.372;8.990;2024-01-07T00:01:46;1.80;99.90
12111;DHT22;6119;52.372;8.990;2024-01-07T00:04:33;1.70;99.90
12111;DHT22;6119;52.372;8.990;2024-01-07T00:07:19;1.80;99.90
12111;DHT22;6119;52.372;8.990;2024-01-07T00:10:07;1.70;99.90
12111;DHT22;6119;52.372;8.990;2024-01-07T00:12:56;1.70;99.90
12111;DHT22;6119;52.372;8.990;2024-01-07T00:15:43;1.80;99.90
12111;DHT22;6119;52.372;8.990;2024-01-07T00:18:29;1.80;99.90
12111;DHT22;6119;52.372;8.990;2024-01-07T00:21:16;1.80;99.90
12111;DHT22;6119;52.372;8.990;2024-01-07T00:24:03;1.80;99.90
12111;DHT22;6119;52.372;8.990;2024-01-07T00:26:50;1.80;99.90
12111;DHT22;6119;52.372;8.990;2024-01-07T00:29:38;1.70;99.90
12111;DHT22;6119;52.372;8.990;2024-01-07T00:32:24;1.70;99.90
12111;DHT22;6119;52.372;8.990;2024-01-07T00:35:12;1.80;99.90
12111;DHT22;6119;52.372;8.990;2024-01-07T00:37:58;1.80;99.90
12111;DHT22;6119;52.372;8.990;2024-01-07T00:40:45;1.80;99.90
12111;DHT22;6119;52.372;8.990;2024-01-07T00:43:31;1.70;99.90
12111;DHT22;6119;52.372;8.990;2024-01-07T00:46:19;1.70;99.90
12111;DHT22;6119;52.372;8.990;2024-01-07T00:49:06;1.70;99.90
12111;DHT22;6119;52.372;8.990;2024-01-07T00:51:53;1.70;99.90
12111;DHT22;6119;52.372;8.990;2024-01-07T00:54:39;1.80;99.90
12111;DHT22;6119;52.372;8.990;2024-01-07T00:57:26;1.70;99.90
12111;DHT22;6119;52.372;8.990;2024-01-07T01:00:13;1.70;99.90
12111;DHT22;6119;52.372;8.990;2024-01-07T01:03:01;1.80;99.90
12111;DHT22;6119;52.372;8.990;2024-01-07T01:05:47;1.70;99.90
12111;DHT22;6119;52.372;8.990;2024-01-07T01:08:34;1.70;99.90
12111;DHT22;6119;52.372;8.990;2024-01-07T01:11:21;1.70;99.90
12111;DHT22;6119;52.372;8.990;2024-01-07T01:14:07;1.70;99.90
12111;DHT22;6119;52.372;8.990;2024-01-07T01:16:54;1.70;99.90
12111;DHT22;6119;52.372;8.990;2024-01-07T01:19:42;1.60;99.90
12111;DHT22;6119;52.372;8.990;2024-01-07T01:22:29;1.60;99.90
12111;DHT22;6119;52.372;8.990;2024-01-07T01:25:16;1.60;99.90
12111;DHT22;6119;52.372;8.990;2024-01-07T01:28:02;1.70;99.90
12111;DHT22;6119;52.372;8.990;2024-01-07T01:30:49;1.70;99.90
12111;DHT22;6119;52.372;8.990;2024-01-07T01:33:36;1.60;99.90
12111;DHT22;6119;52.372;8.990;2024-01-07T01:36:25;1.60;99.90
12111;DHT22;6119;52.372;8.990;2024-01-07T01:39:12;1.60;99.90
12111;DHT22;6119;52.372;8.990;2024-01-07T01:41:58;1.70;99.90
12111;DHT22;6119;52.372;8.990;2024-01-07T01:44:46;1.70;99.90
12111;DHT22;6119;52.372;8.990;2024-01-07T01:47:33;1.60;99.90
12111;DHT22;6119;52.372;8.990;2024-01-07T01:50:20;1.60;99.90
12111;DHT22;6119;52.372;8.990;2024-01-07T01:53:08;1.70;99.90
12111;DHT22;6119;52.372;8.990;2024-01-07T01:55:57;1.60;99.90
12111;DHT22;6119;52.372;8.990;2024-01-07T01:58:43;1.60;99.90
12111;DHT22;6119;52.372;8.990;2024-01-07T02:01:31;1.50;99.90
12111;DHT22;6119;52.372;8.990;2024-01-07T02:04:18;1.50;99.90
12111;DHT22;6119;52.372;8.990;2024-01-07T02:07:05;1.40;99.90
12111;DHT22;6119;52.372;8.990;2024-01-07T02:09:53;1.40;99.90
12111;DHT22;6119;52.372;8.990;2024-01-07T02:12:40;1.40;99.90
12111;DHT22;6119;52.372;8.990;2024-01-07T02:15:26;1.40;99.90
12111;DHT22;6119;52.372;8.990;2024-01-07T02:18:13;1.50;99.90
12111;DHT22;6119;52.372;8.990;2024-01-07T02:21:00;1.40;99.90
12111;DHT22;6119;52.372;8.990;2024-01-07T02:23:46;1.40;99.90
12111;DHT22;6119;52.372;8.990;2024-01-07T02:26:34;1.40;99.90
12111;DHT22;6119;52.372;8.990;2024-01-07T02:29:21;1.30;99.90
12111;DHT22;6119;52.372;8.990;2024-01-07T02:32:07;1.30;99.90
12111;DHT22;6119;52.372;8.990;2024-01-07T02:34:54;1.30;99.90
12111;DHT22;6119;52.372;8.990;2024-01-07T02:37:40;1.40;99.90
12111;DHT22;6119;52.372;8.990;2024-01-07T02:40:27;1.30;99.90
12111;DHT22;6119;52.372;8.990;2024-01-07T02:43:15;1.40;99.90
12111;DHT22;6119;52.372;8.990;2024-01-07T02:46:02;1.30;99.90
12111;DHT22;6119;52.372;8.990;2024-01-07T02:48:49;1.30;99.90
12111;DHT22;6119;52.372;8.990;2024-01-07T02:51:36;1.30;99.90
12111;DHT22;6119;52.372;8.990;2024-01-07T02:54:23;1.20;99.90
12111;DHT22;6119;52.372;8.990;2024-01-07T02:57:09;1.20;99.90
12111;DHT22;6119;52.372;8.990;2024-01-07T02:59:57;1.30;99.90
12111;DHT22;6119;52.372;8.990;2024-01-07T03:02:44;1.30;99.90
12111;DHT22;6119;52.372;8.990;2024-01-07T03:05:30;1.30;99.90
12111;DHT22;6119;52.372;8.990;2024-01-07T03:08:18;1.40;99.90
12111;DHT22;6119;52.372;8.990;2024-01-07T03:11:05;1.40;99.90
12111;DHT22;6119;52.372;8.990;2024-01-07T03:13:52;1.40;99.90
12111;DHT22;6119;52.372;8.990;2024-01-07T03:16:40;1.40;99.90
12111;DHT22;6119;52.372;8.990;2024-01-07T03:19:26;1.30;99.90
12111;DHT22;6119;52.372;8.990;2024-01-07T03:22:13;1.40;99.90
12111;DHT22;6119;52.372;8.990;2024-01-07T03:25:00;1.20;99.90
12111;DHT22;6119;52.372;8.990;2024-01-07T03:27:46;1.20;99.90
12111;DHT22;6119;52.372;8.990;2024-01-07T03:30:33;1.20;99.90
12111;DHT22;6119;52.372;8.990;2024-01-07T03:33:22;1.30;99.90
12111;DHT22;6119;52.372;8.990;2024-01-07T03:36:09;1.30;99.90
12111;DHT22;6119;52.372;8.990;2024-01-07T03:38:56;1.20;99.90
12111;DHT22;6119;52.372;8.990;2024-01-07T03:41:43;1.20;99.90
12111;DHT22;6119;52.372;8.990;2024-01-07T03:44:29;1.20;99.90
12111;DHT22;6119;52.372;8.990;2024-01-07T03:47:16;1.10;99.90
12111;DHT22;6119;52.372;8.990;2024-01-07T03:50:04;1.00;99.90
12111;DHT22;6119;52.372;8.990;2024-01-07T03:52:51;1.10;99.90
12111;DHT22;6119;52.372;8.990;2024-01-07T03:55:37;1.20;99.90
12111;DHT22;6119;52.372;8.990;2024-01-07T03:58:24;1.00;99.90
12111;DHT22;6119;52.372;8.990;2024-01-07T04:01:15;1.00;99.90
12111;DHT22;6119;52.372;8.990;2024-01-07T04:04:03;1.10;99.90
12111;DHT22;6119;52.372;8.990;2024-01-07T04:06:51;1.10;99.90
12111;DHT22;6119;52.372;8.990;2024-01-07T04:09:38;1.00;99.90
12111;DHT22;6119;52.372;8.990;2024-01-07T04:12:24;1.00;99.90
12111;DHT22;6119;52.372;8.990;2024-01-07T04:15:12;1.00;99.90
12111;DHT22;6119;52.372;8.990;2024-01-07T04:18:01;1.00;99.90
12111;DHT22;6119;52.372;8.990;2024-01-07T04:20:48;0.90;99.90
12111;DHT22;6119;52.372;8.990;2024-01-07T04:23:36;0.90;99.90
12111;DHT22;6119;52.372;8.990;2024-01-07T04:26:23;0.90;99.90
12111;DHT22;6119;52.372;8.990;2024-01-07T04:29:09;0.90;99.90
12111;DHT22;6119;52.372;8.990;2024-01-07T04:31:56;0.90;99.90
12111;DHT22;6119;52.372;8.990;2024-01-07T04:34:42;0.90;99.90
12111;DHT22;6119;52.372;8.990;2024-01-07T04:37:29;0.70;99.90
12111;DHT22;6119;52.372;8.990;2024-01-07T04:40:17;0.80;99.90
12111;DHT22;6119;52.372;8.990;2024-01-07T04:43:04;0.80;99.90
12111;DHT22;6119;52.372;8.990;2024-01-07T04:45:50;0.70;99.90
12111;DHT22;6119;52.372;8.990;2024-01-07T04:48:37;0.80;99.90
12111;DHT22;6119;52.372;8.990;2024-01-07T04:51:25;0.80;99.90
12111;DHT22;6119;52.372;8.990;2024-01-07T04:54:11;0.70;99.90
12111;DHT22;6119;52.372;8.990;2024-01-07T04:56:59;0.70;99.90
12111;DHT22;6119;52.372;8.990;2024-01-07T04:59:46;0.70;99.90
12111;DHT22;6119;52.372;8.990;2024-01-07T05:02:32;0.80;99.90
12111;DHT22;6119;52.372;8.990;2024-01-07T05:05:19;0.80;99.90
12111;DHT22;6119;52.372;8.990;2024-01-07T05:08:06;0.70;99.90
12111;DHT22;6119;52.372;8.990;2024-01-07T05:10:52;0.60;99.90
12111;DHT22;6119;52.372;8.990;2024-01-07T05:13:40;0.70;99.90
12111;DHT22;6119;52.372;8.990;2024-01-07T05:16:27;0.60;99.90
12111;DHT22;6119;52.372;8.990;2024-01-07T05:19:13;0.60;99.90
12111;DHT22;6119;52.372;8.990;2024-01-07T05:22:00;0.60;99.90
12111;DHT22;6119;52.372;8.990;2024-01-07T05:24:46;0.70;99.90
12111;DHT22;6119;52.372;8.990;2024-01-07T05:27:33;0.70;99.90
12111;DHT22;6119;52.372;8.990;2024-01-07T05:30:21;0.60;99.90
12111;DHT22;6119;52.372;8.990;2024-01-07T05:33:08;0.60;99.90
12111;DHT22;6119;52.372;8.990;2024-01-07T05:35:55;0.70;99.90
12111;DHT22;6119;52.372;8.990;2024-01-07T05:38:43;0.60;99.90
12111;DHT22;6119;52.372;8.990;2024-01-07T05:41:29;0.60;99.90
12111;DHT22;6119;52.372;8.990;2024-01-07T05:44:16;0.60;99.90
12111;DHT22;6119;52.372;8.990;2024-01-07T05:47:04;0.50;99.90
12111;DHT22;6119;52.372;8.990;2024-01-07T05:49:51;0.70;99.90
12111;DHT22;6119;52.372;8.990;2024-01-07T05:52:38;0.60;99.90
12111;DHT22;6119;52.372;8.990;2024-01-07T05:55:25;0.50;99.90
12111;DHT22;6119;52.372;8.990;2024-01-07T05:58:11;0.60;99.90
12111;DHT22;6119;52.372;8.990;2024-01-07T06:00:58;0.50;99.90
12111;DHT22;6119;52.372;8.990;2024-01-07T06:03:47;0.60;99.90
12111;DHT22;6119;52.372;8.990;2024-01-07T06:06:34;0.50;99.90
12111;DHT22;6119;52.372;8.990;2024-01-07T06:09:21;0.60;99.90
12111;DHT22;6119;52.372;8.990;2024-01-07T06:12:07;0.60;99.90
12111;DHT22;6119;52.372;8.990;2024-01-07T06:14:54;0.60;99.90
12111;DHT22;6119;52.372;8.990;2024-01-07T06:17:41;0.60;99.90
12111;DHT22;6119;52.372;8.990;2024-01-07T06:20:29;0.50;99.90
12111;DHT22;6119;52.372;8.990;2024-01-07T06:23:16;0.50;99.90
12111;DHT22;6119;52.372;8.990;2024-01-07T06:26:03;0.50;99.90
12111;DHT22;6119;52.372;8.990;2024-01-07T06:28:50;0.60;99.90
12111;DHT22;6119;52.372;8.990;2024-01-07T06:31:42;0.60;99.90
12111;DHT22;6119;52.372;8.990;2024-01-07T06:34:29;0.60;99.90
12111;DHT22;6119;52.372;8.990;2024-01-07T06:37:17;0.50;99.90
12111;DHT22;6119;52.372;8.990;2024-01-07T06:40:04;0.50;99.90
12111;DHT22;6119;52.372;8.990;2024-01-07T06:42:51;0.60;99.90
12111;DHT22;6119;52.372;8.990;2024-01-07T06:45:38;0.60;99.90
12111;DHT22;6119;52.372;8.990;2024-01-07T06:48:25;0.60;99.90
12111;DHT22;6119;52.372;8.990;2024-01-07T06:51:11;0.60;99.90
12111;DHT22;6119;52.372;8.990;2024-01-07T06:54:00;0.60;99.90
12111;DHT22;6119;52.372;8.990;2024-01-07T06:56:47;0.60;99.90
12111;DHT22;6119;52.372;8.990;2024-01-07T06:59:33;0.50;99.90
12111;DHT22;6119;52.372;8.990;2024-01-07T07:02:20;0.40;99.90
12111;DHT22;6119;52.372;8.990;2024-01-07T07:05:07;0.40;99.90
12111;DHT22;6119;52.372;8.990;2024-01-07T07:07:54;0.40;99.90
12111;DHT22;6119;52.372;8.990;2024-01-07T07:10:42;0.40;99.90
12111;DHT22;6119;52.372;8.990;2024-01-07T07:13:28;0.30;99.90
12111;DHT22;6119;52.372;8.990;2024-01-07T07:16:15;0.30;99.90
12111;DHT22;6119;52.372;8.990;2024-01-07T07:19:02;0.20;99.90
12111;DHT22;6119;52.372;8.990;2024-01-07T07:21:49;0.20;99.90
12111;DHT22;6119;52.372;8.990;2024-01-07T07:24:40;0.20;99.90
12111;DHT22;6119;52.372;8.990;2024-01-07T07:27:28;0.10;99.90
12111;DHT22;6119;52.372;8.990;2024-01-07T07:30:16;0.20;99.90
12111;DHT22;6119;52.372;8.990;2024-01-07T07:33:03;0.10;99.90
12111;DHT22;6119;52.372;8.990;2024-01-07T07:35:50;0.10;99.90
12111;DHT22;6119;52.372;8.990;2024-01-07T07:38:37;0.10;99.90
12111;DHT22;6119;52.372;8.990;2024-01-07T07:41:23;0.10;99.90
12111;DHT22;6119;52.372;8.990;2024-01-07T07:44:11;0.10;99.90
12111;DHT22;6119;52.372;8.990;2024-01-07T07:46:58;0.10;99.90
12111;DHT22;6119;52.372;8.990;2024-01-07T07:49:44;0.00;99.90
12111;DHT22;6119;52.372;8.990;2024-01-07T07:52:31;-0.10;99.90
12111;DHT22;6119;52.372;8.990;2024-01-07T07:55:19;0.10;99.90
12111;DHT22;6119;52.372;8.990;2024-01-07T07:58:05;0.00;99.90
12111;DHT22;6119;52.372;8.990;2024-01-07T08:00:53;0.00;99.90
12111;DHT22;6119;52.372;8.990;2024-01-07T08:03:41;0.00;99.90
12111;DHT22;6119;52.372;8.990;2024-01-07T08:06:28;0.00;99.90
12111;DHT22;6119;52.372;8.990;2024-01-07T08:09:14;0.10;99.90
12111;DHT22;6119;52.372;8.990;2024-01-07T08:12:01;0.10;99.90
12111;DHT22;6119;52.372;8.990;2024-01-07T08:14:48;0.00;99.90
12111;DHT22;6119;52.372;8.990;2024-01-07T08:17:36;0.00;99.90
12111;DHT22;6119;52.372;8.990;2024-01-07T08:20:22;0.00;99.90
12111;DHT22;6119;52.372;8.990;2024-01-07T08:23:09;0.00;99.90
12111;DHT22;6119;52.372;8.990;2024-01-07T08:25:56;0.00;99.90
12111;DHT22;6119;52.372;8.990;2024-01-07T08:28:43;0.10;99.90
12111;DHT22;6119;52.372;8.990;2024-01-07T08:31:30;0.20;99.90
12111;DHT22;6119;52.372;8.990;2024-01-07T08:34:18;0.10;99.90
12111;DHT22;6119;52.372;8.990;2024-01-07T08:37:06;0.20;99.90
12111;DHT22;6119;52.372;8.990;2024-01-07T08:39:53;0.10;99.90
12111;DHT22;6119;52.372;8.990;2024-01-07T08:42:40;0.10;99.90
12111;DHT22;6119;52.372;8.990;2024-01-07T08:45:27;0.10;99.90
12111;DHT22;6119;52.372;8.990;2024-01-07T08:48:14;0.20;99.90
12111;DHT22;6119;52.372;8.990;2024-01-07T08:51:03;0.30;99.90
12111;DHT22;6119;52.372;8.990;2024-01-07T08:53:50;0.30;99.90
12111;DHT22;6119;52.372;8.990;2024-01-07T08:56:37;0.30;99.90
12111;DHT22;6119;52.372;8.990;2024-01-07T08:59:25;0.20;99.90
12111;DHT22;6119;52.372;8.990;2024-01-07T09:02:11;0.30;99.90
12111;DHT22;6119;52.372;8.990;2024-01-07T09:04:58;0.30;99.90
12111;DHT22;6119;52.372;8.990;2024-01-07T09:07:46;0.40;99.90
12111;DHT22;6119;52.372;8.990;2024-01-07T09:10:33;0.40;99.90
12111;DHT22;6119;52.372;8.990;2024-01-07T09:13:20;0.40;99.90
12111;DHT22;6119;52.372;8.990;2024-01-07T09:16:07;0.40;99.90
12111;DHT22;6119;52.372;8.990;2024-01-07T09:18:57;0.50;99.90
12111;DHT22;6119;52.372;8.990;2024-01-07T09:21:44;0.50;99.90
12111;DHT22;6119;52.372;8.990;2024-01-07T09:24:32;0.50;99.90
12111;DHT22;6119;52.372;8.990;2024-01-07T09:27:19;0.50;99.90
12111;DHT22;6119;52.372;8.990;2024-01-07T09:30:07;0.60;99.90
12111;DHT22;6119;52.372;8.990;2024-01-07T09:32:56;0.60;99.90
12111;DHT22;6119;52.372;8.990;2024-01-07T09:35:43;0.60;99.90
12111;DHT22;6119;52.372;8.990;2024-01-07T09:38:30;0.70;99.90
12111;DHT22;6119;52.372;8.990;2024-01-07T09:41:18;0.60;99.90
12111;DHT22;6119;52.372;8.990;2024-01-07T09:44:06;0.60;99.90
12111;DHT22;6119;52.372;8.990;2024-01-07T09:46:54;0.60;99.90
12111;DHT22;6119;52.372;8.990;2024-01-07T09:49:41;0.60;99.90
12111;DHT22;6119;52.372;8.990;2024-01-07T09:52:28;0.60;99.90
12111;DHT22;6119;52.372;8.990;2024-01-07T09:55:26;0.80;99.90
12111;DHT22;6119;52.372;8.990;2024-01-07T09:58:16;0.80;99.90
12111;DHT22;6119;52.372;8.990;2024-01-07T10:01:03;0.80;99.90
12111;DHT22;6119;52.372;8.990;2024-01-07T10:03:51;0.90;99.90
12111;DHT22;6119;52.372;8.990;2024-01-07T10:06:38;0.80;99.90
12111;DHT22;6119;52.372;8.990;2024-01-07T10:09:29;0.80;99.90
12111;DHT22;6119;52.372;8.990;2024-01-07T10:12:16;0.80;99.90
12111;DHT22;6119;52.372;8.990;2024-01-07T10:15:05;0.80;99.90
12111;DHT22;6119;52.372;8.990;2024-01-07T10:17:55;0.90;99.90
12111;DHT22;6119;52.372;8.990;2024-01-07T10:20:41;0.90;99.90
12111;DHT22;6119;52.372;8.990;2024-01-07T10:23:28;1.00;99.90
12111;DHT22;6119;52.372;8.990;2024-01-07T10:26:15;0.90;99.90
12111;DHT22;6119;52.372;8.990;2024-01-07T10:29:14;1.00;99.90
12111;DHT22;6119;52.372;8.990;2024-01-07T10:32:03;1.00;99.90
12111;DHT22;6119;52.372;8.990;2024-01-07T10:34:52;1.00;99.90
12111;DHT22;6119;52.372;8.990;2024-01-07T10:37:44;1.00;99.90
12111;DHT22;6119;52.372;8.990;2024-01-07T10:40:31;1.10;99.90
12111;DHT22;6119;52.372;8.990;2024-01-07T10:43:20;1.10;99.90
12111;DHT22;6119;52.372;8.990;2024-01-07T10:46:09;1.10;99.90
12111;DHT22;6119;52.372;8.990;2024-01-07T10:49:04;1.00;99.90
12111;DHT22;6119;52.372;8.990;2024-01-07T10:52:04;1.00;99.90
12111;DHT22;6119;52.372;8.990;2024-01-07T10:54:51;1.10;99.90
12111;DHT22;6119;52.372;8.990;2024-01-07T10:57:42;1.10;99.90
12111;DHT22;6119;52.372;8.990;2024-01-07T11:00:29;1.10;99.90
12111;DHT22;6119;52.372;8.990;2024-01-07T11:03:22;1.10;99.90
12111;DHT22;6119;52.372;8.990;2024-01-07T11:06:33;1.10;99.90
12111;DHT22;6119;52.372;8.990;2024-01-07T11:09:28;1.10;99.90
12111;DHT22;6119;52.372;8.990;2024-01-07T11:12:18;1.10;99.90
12111;DHT22;6119;52.372;8.990;2024-01-07T11:15:06;1.20;99.90
12111;DHT22;6119;52.372;8.990;2024-01-07T11:17:53;1.20;99.90
12111;DHT22;6119;52.372;8.990;2024-01-07T11:20:39;1.20;99.90
12111;DHT22;6119;52.372;8.990;2024-01-07T11:23:29;1.20;99.90
12111;DHT22;6119;52.372;8.990;2024-01-07T11:26:16;1.20;99.90
12111;DHT22;6119;52.372;8.990;2024-01-07T11:29:03;1.20;99.90
12111;DHT22;6119;52.372;8.990;2024-01-07T11:31:50;1.20;99.90
12111;DHT22;6119;52.372;8.990;2024-01-07T11:34:40;1.20;99.90
12111;DHT22;6119;52.372;8.990;2024-01-07T11:37:47;1.10;99.90
12111;DHT22;6119;52.372;8.990;2024-01-07T11:40:38;1.10;99.90
12111;DHT22;6119;52.372;8.990;2024-01-07T11:43:25;1.10;99.90
12111;DHT22;6119;52.372;8.990;2024-01-07T11:46:12;1.10;99.90
12111;DHT22;6119;52.372;8.990;2024-01-07T11:48:59;1.20;99.90
12111;DHT22;6119;52.372;8.990;2024-01-07T11:51:46;1.20;99.90
12111;DHT22;6119;52.372;8.990;2024-01-07T11:54:33;1.20;99.90
12111;DHT22;6119;52.372;8.990;2024-01-07T11:57:22;1.30;99.90
12111;DHT22;6119;52.372;8.990;2024-01-07T12:00:10;1.30;99.90
12111;DHT22;6119;52.372;8.990;2024-01-07T12:02:57;1.40;99.90
12111;DHT22;6119;52.372;8.990;2024-01-07T12:05:44;1.30;99.90
12111;DHT22;6119;52.372;8.990;2024-01-07T12:08:33;1.30;99.90
12111;DHT22;6119;52.372;8.990;2024-01-07T12:11:19;1.30;99.90
12111;DHT22;6119;52.372;8.990;2024-01-07T12:14:08;1.30;99.90
12111;DHT22;6119;52.372;8.990;2024-01-07T12:16:55;1.30;99.90
12111;DHT22;6119;52.372;8.990;2024-01-07T12:19:41;1.30;99.90
12111;DHT22;6119;52.372;8.990;2024-01-07T12:22:29;1.30;99.90
12111;DHT22;6119;52.372;8.990;2024-01-07T12:25:21;1.30;99.90
12111;DHT22;6119;52.372;8.990;2024-01-07T12:28:08;1.40;99.90
12111;DHT22;6119;52.372;8.990;2024-01-07T12:30:56;1.40;99.90
12111;DHT22;6119;52.372;8.990;2024-01-07T12:33:44;1.40;99.90
12111;DHT22;6119;52.372;8.990;2024-01-07T12:36:31;1.40;99.90
12111;DHT22;6119;52.372;8.990;2024-01-07T12:39:18;1.50;99.90
12111;DHT22;6119;52.372;8.990;2024-01-07T12:42:08;1.60;99.90
12111;DHT22;6119;52.372;8.990;2024-01-07T12:44:55;1.60;99.90
12111;DHT22;6119;52.372;8.990;2024-01-07T12:47:43;1.50;99.90
12111;DHT22;6119;52.372;8.990;2024-01-07T12:50:31;1.60;99.90
12111;DHT22;6119;52.372;8.990;2024-01-07T12:53:18;1.60;99.90
12111;DHT22;6119;52.372;8.990;2024-01-07T12:56:06;1.60;99.90
12111;DHT22;6119;52.372;8.990;2024-01-07T12:58:52;1.70;99.90
12111;DHT22;6119;52.372;8.990;2024-01-07T13:01:39;1.70;99.90
12111;DHT22;6119;52.372;8.990;2024-01-07T13:04:27;1.70;99.90
12111;DHT22;6119;52.372;8.990;2024-01-07T13:07:14;1.70;99.90
12111;DHT22;6119;52.372;8.990;2024-01-07T13:10:01;1.70;99.90
12111;DHT22;6119;52.372;8.990;2024-01-07T13:12:48;1.70;99.90
12111;DHT22;6119;52.372;8.990;2024-01-07T13:15:39;1.80;99.90
12111;DHT22;6119;52.372;8.990;2024-01-07T13:18:28;1.80;99.90
12111;DHT22;6119;52.372;8.990;2024-01-07T13:21:16;1.90;99.90
12111;DHT22;6119;52.372;8.990;2024-01-07T13:24:03;1.70;99.90
12111;DHT22;6119;52.372;8.990;2024-01-07T13:26:50;1.60;99.90
12111;DHT22;6119;52.372;8.990;2024-01-07T13:29:37;1.60;99.90
12111;DHT22;6119;52.372;8.990;2024-01-07T13:32:24;1.60;99.90
12111;DHT22;6119;52.372;8.990;2024-01-07T13:35:11;1.60;99.90
12111;DHT22;6119;52.372;8.990;2024-01-07T13:38:00;1.60;99.90
12111;DHT22;6119;52.372;8.990;2024-01-07T13:40:47;1.60;99.90
12111;DHT22;6119;52.372;8.990;2024-01-07T13:43:34;1.60;99.90
12111;DHT22;6119;52.372;8.990;2024-01-07T13:46:22;1.60;99.90
12111;DHT22;6119;52.372;8.990;2024-01-07T13:49:10;1.50;99.90
12111;DHT22;6119;52.372;8.990;2024-01-07T13:51:58;1.50;99.90
12111;DHT22;6119;52.372;8.990;2024-01-07T13:54:46;1.50;99.90
12111;DHT22;6119;52.372;8.990;2024-01-07T13:57:33;1.50;99.90
12111;DHT22;6119;52.372;8.990;2024-01-07T14:00:20;1.50;99.90
12111;DHT22;6119;52.372;8.990;2024-01-07T14:03:07;1.40;99.90
12111;DHT22;6119;52.372;8.990;2024-01-07T14:05:53;1.30;99.90
12111;DHT22;6119;52.372;8.990;2024-01-07T14:08:40;1.30;99.90
12111;DHT22;6119;52.372;8.990;2024-01-07T14:11:29;1.30;99.90
12111;DHT22;6119;52.372;8.990;2024-01-07T14:14:16;1.20;99.90
12111;DHT22;6119;52.372;8.990;2024-01-07T14:17:04;1.20;99.90
12111;DHT22;6119;52.372;8.990;2024-01-07T14:19:52;1.20;99.90
12111;DHT22;6119;52.372;8.990;2024-01-07T14:22:39;1.20;99.90
12111;DHT22;6119;52.372;8.990;2024-01-07T14:25:25;1.20;99.90
12111;DHT22;6119;52.372;8.990;2024-01-07T14:28:14;1.10;99.90
12111;DHT22;6119;52.372;8.990;2024-01-07T14:31:01;1.10;99.90
12111;DHT22;6119;52.372;8.990;2024-01-07T14:33:49;1.10;99.90
12111;DHT22;6119;52.372;8.990;2024-01-07T14:36:39;1.00;99.90
12111;DHT22;6119;52.372;8.990;2024-01-07T14:39:26;1.00;99.90
12111;DHT22;6119;52.372;8.990;2024-01-07T14:42:13;1.00;99.90
12111;DHT22;6119;52.372;8.990;2024-01-07T14:45:01;0.90;99.90
12111;DHT22;6119;52.372;8.990;2024-01-07T14:47:49;0.90;99.90
12111;DHT22;6119;52.372;8.990;2024-01-07T14:50:36;0.90;99.90
12111;DHT22;6119;52.372;8.990;2024-01-07T14:53:26;0.90;99.90
12111;DHT22;6119;52.372;8.990;2024-01-07T14:56:13;0.80;99.90
12111;DHT22;6119;52.372;8.990;2024-01-07T14:59:00;0.80;99.90
12111;DHT22;6119;52.372;8.990;2024-01-07T15:01:49;0.70;99.90
12111;DHT22;6119;52.372;8.990;2024-01-07T15:04:37;0.70;99.90
12111;DHT22;6119;52.372;8.990;2024-01-07T15:07:25;0.70;99.90
12111;DHT22;6119;52.372;8.990;2024-01-07T15:10:15;0.60;99.90
12111;DHT22;6119;52.372;8.990;2024-01-07T15:13:03;0.60;99.90
12111;DHT22;6119;52.372;8.990;2024-01-07T15:16:03;0.60;99.90
12111;DHT22;6119;52.372;8.990;2024-01-07T15:18:51;0.60;99.90
12111;DHT22;6119;52.372;8.990;2024-01-07T15:21:39;0.50;99.90
12111;DHT22;6119;52.372;8.990;2024-01-07T15:24:27;0.60;99.90
12111;DHT22;6119;52.372;8.990;2024-01-07T15:27:13;0.50;99.90
12111;DHT22;6119;52.372;8.990;2024-01-07T15:30:00;0.50;99.90
12111;DHT22;6119;52.372;8.990;2024-01-07T15:32:49;0.50;99.90
12111;DHT22;6119;52.372;8.990;2024-01-07T15:35:37;0.50;99.90
12111;DHT22;6119;52.372;8.990;2024-01-07T15:38:24;0.50;99.90
12111;DHT22;6119;52.372;8.990;2024-01-07T15:41:10;0.50;99.90
12111;DHT22;6119;52.372;8.990;2024-01-07T15:43:58;0.50;99.90
12111;DHT22;6119;52.372;8.990;2024-01-07T15:46:44;0.50;99.90
12111;DHT22;6119;52.372;8.990;2024-01-07T15:49:31;0.50;99.90
12111;DHT22;6119;52.372;8.990;2024-01-07T15:52:20;0.50;99.90
12111;DHT22;6119;52.372;8.990;2024-01-07T15:55:07;0.50;99.90
12111;DHT22;6119;52.372;8.990;2024-01-07T15:57:54;0.50;99.90
12111;DHT22;6119;52.372;8.990;2024-01-07T16:00:41;0.40;99.90
12111;DHT22;6119;52.372;8.990;2024-01-07T16:03:28;0.40;99.90
12111;DHT22;6119;52.372;8.990;2024-01-07T16:06:14;0.40;99.90
12111;DHT22;6119;52.372;8.990;2024-01-07T16:09:02;0.40;99.90
12111;DHT22;6119;52.372;8.990;2024-01-07T16:11:49;0.30;99.90
12111;DHT22;6119;52.372;8.990;2024-01-07T16:14:37;0.40;99.90
12111;DHT22;6119;52.372;8.990;2024-01-07T16:17:23;0.40;99.90
12111;DHT22;6119;52.372;8.990;2024-01-07T16:20:11;0.40;99.90
12111;DHT22;6119;52.372;8.990;2024-01-07T16:22:58;0.30;99.90
12111;DHT22;6119;52.372;8.990;2024-01-07T16:25:47;0.30;99.90
12111;DHT22;6119;52.372;8.990;2024-01-07T16:28:34;0.30;99.90
12111;DHT22;6119;52.372;8.990;2024-01-07T16:31:22;0.30;99.90
12111;DHT22;6119;52.372;8.990;2024-01-07T16:34:09;0.20;99.90
12111;DHT22;6119;52.372;8.990;2024-01-07T16:36:56;0.20;99.90
12111;DHT22;6119;52.372;8.990;2024-01-07T16:39:43;0.30;99.90
12111;DHT22;6119;52.372;8.990;2024-01-07T16:42:30;0.20;99.90
12111;DHT22;6119;52.372;8.990;2024-01-07T16:45:18;0.20;99.90
12111;DHT22;6119;52.372;8.990;2024-01-07T16:48:05;0.20;99.90
12111;DHT22;6119;52.372;8.990;2024-01-07T16:50:52;0.20;99.90
12111;DHT22;6119;52.372;8.990;2024-01-07T16:53:39;0.20;99.90
12111;DHT22;6119;52.372;8.990;2024-01-07T16:56:26;0.20;99.90
12111;DHT22;6119;52.372;8.990;2024-01-07T16:59:14;0.30;99.90
12111;DHT22;6119;52.372;8.990;2024-01-07T17:02:02;0.20;99.90
12111;DHT22;6119;52.372;8.990;2024-01-07T17:04:49;0.20;99.90
12111;DHT22;6119;52.372;8.990;2024-01-07T17:07:36;0.20;99.90
12111;DHT22;6119;52.372;8.990;2024-01-07T17:10:23;0.30;99.90
12111;DHT22;6119;52.372;8.990;2024-01-07T17:13:10;0.20;99.90
12111;DHT22;6119;52.372;8.990;2024-01-07T17:15:58;0.30;99.90
12111;DHT22;6119;52.372;8.990;2024-01-07T17:18:44;0.30;99.90
12111;DHT22;6119;52.372;8.990;2024-01-07T17:21:31;0.30;99.90
12111;DHT22;6119;52.372;8.990;2024-01-07T17:24:18;0.40;99.90
12111;DHT22;6119;52.372;8.990;2024-01-07T17:27:05;0.30;99.90
12111;DHT22;6119;52.372;8.990;2024-01-07T17:29:51;0.30;99.90
12111;DHT22;6119;52.372;8.990;2024-01-07T17:32:39;0.40;99.90
12111;DHT22;6119;52.372;8.990;2024-01-07T17:35:26;0.30;99.90
12111;DHT22;6119;52.372;8.990;2024-01-07T17:38:15;0.30;99.90
12111;DHT22;6119;52.372;8.990;2024-01-07T17:41:06;0.30;99.90
12111;DHT22;6119;52.372;8.990;2024-01-07T17:43:52;0.40;99.90
12111;DHT22;6119;52.372;8.990;2024-01-07T17:46:38;0.30;99.90
12111;DHT22;6119;52.372;8.990;2024-01-07T17:49:27;0.30;99.90
12111;DHT22;6119;52.372;8.990;2024-01-07T17:52:14;0.30;99.90
12111;DHT22;6119;52.372;8.990;2024-01-07T17:55:00;0.30;99.90
12111;DHT22;6119;52.372;8.990;2024-01-07T17:57:47;0.30;99.90
12111;DHT22;6119;52.372;8.990;2024-01-07T18:00:34;0.30;99.90
12111;DHT22;6119;52.372;8.990;2024-01-07T18:03:21;0.30;99.90
12111;DHT22;6119;52.372;8.990;2024-01-07T18:06:10;0.30;99.90
12111;DHT22;6119;52.372;8.990;2024-01-07T18:08:57;0.30;99.90
12111;DHT22;6119;52.372;8.990;2024-01-07T18:11:43;0.30;99.90
12111;DHT22;6119;52.372;8.990;2024-01-07T18:14:30;0.20;99.90